地図

経路データ

SID SEASON NUMBER BASIN SUBBASIN NAME ISO_TIME NATURE LAT LON WMO_WIND WMO_PRES WMO_AGENCY TRACK_TYPE DIST2LAND LANDFALL IFLAG USA_AGENCY USA_ATCF_ID USA_LAT USA_LON USA_RECORD USA_STATUS USA_WIND USA_PRES USA_SSHS USA_R34_NE USA_R34_SE USA_R34_SW USA_R34_NW USA_R50_NE USA_R50_SE USA_R50_SW USA_R50_NW USA_R64_NE USA_R64_SE USA_R64_SW USA_R64_NW USA_POCI USA_ROCI USA_RMW USA_EYE TOKYO_LAT TOKYO_LON TOKYO_GRADE TOKYO_WIND TOKYO_PRES TOKYO_R50_DIR TOKYO_R50_LONG TOKYO_R50_SHORT TOKYO_R30_DIR TOKYO_R30_LONG TOKYO_R30_SHORT TOKYO_LAND CMA_LAT CMA_LON CMA_CAT CMA_WIND CMA_PRES HKO_LAT HKO_LON HKO_CAT HKO_WIND HKO_PRES NEWDELHI_LAT NEWDELHI_LON NEWDELHI_GRADE NEWDELHI_WIND NEWDELHI_PRES NEWDELHI_CI NEWDELHI_DP NEWDELHI_POCI REUNION_LAT REUNION_LON REUNION_TYPE REUNION_WIND REUNION_PRES REUNION_TNUM REUNION_CI REUNION_RMW REUNION_R34_NE REUNION_R34_SE REUNION_R34_SW REUNION_R34_NW REUNION_R50_NE REUNION_R50_SE REUNION_R50_SW REUNION_R50_NW REUNION_R64_NE REUNION_R64_SE REUNION_R64_SW REUNION_R64_NW BOM_LAT BOM_LON BOM_TYPE BOM_WIND BOM_PRES BOM_TNUM BOM_CI BOM_RMW BOM_R34_NE BOM_R34_SE BOM_R34_SW BOM_R34_NW BOM_R50_NE BOM_R50_SE BOM_R50_SW BOM_R50_NW BOM_R64_NE BOM_R64_SE BOM_R64_SW BOM_R64_NW BOM_ROCI BOM_POCI BOM_EYE BOM_POS_METHOD BOM_PRES_METHOD NADI_LAT NADI_LON NADI_CAT NADI_WIND NADI_PRES WELLINGTON_LAT WELLINGTON_LON WELLINGTON_WIND WELLINGTON_PRES DS824_LAT DS824_LON DS824_STAGE DS824_WIND DS824_PRES TD9636_LAT TD9636_LON TD9636_STAGE TD9636_WIND TD9636_PRES TD9635_LAT TD9635_LON TD9635_WIND TD9635_PRES TD9635_ROCI NEUMANN_LAT NEUMANN_LON NEUMANN_CLASS NEUMANN_WIND NEUMANN_PRES MLC_LAT MLC_LON MLC_CLASS MLC_WIND MLC_PRES USA_GUST BOM_GUST BOM_GUST_PER REUNION_GUST REUNION_GUST_PER USA_SEAHGT USA_SEARAD_NE USA_SEARAD_SE USA_SEARAD_SW USA_SEARAD_NW STORM_SPEED STORM_DIR
1970247N17316 1970 106 NA NA NOT_NAMED 1970-09-03 12:00:00 TS 17.4000 -44.0000 25 hurdat_atl main 1656 1656 O_____________ hurdat_atl AL101970 17.4000 -44.0000 TD 25 -1 8 337
1970247N17316 1970 106 NA NA NOT_NAMED 1970-09-03 15:00:00 TS 17.7475 -44.1574 main 1671 1671 P_____________ AL101970 17.7475 -44.1574 TD 25 -1 8 338
1970247N17316 1970 106 NA NA NOT_NAMED 1970-09-03 18:00:00 TS 18.1000 -44.3000 25 hurdat_atl main 1703 1703 O_____________ hurdat_atl AL101970 18.1000 -44.3000 TD 25 -1 8 341
1970247N17316 1970 106 NA NA NOT_NAMED 1970-09-03 21:00:00 TS 18.4575 -44.4150 main 1735 1735 P_____________ AL101970 18.4575 -44.4150 TD 25 -1 7 345
1970247N17316 1970 106 NA NA NOT_NAMED 1970-09-04 00:00:00 TS 18.8000 -44.5000 25 hurdat_atl main 1758 1758 O_____________ hurdat_atl AL101970 18.8000 -44.5000 TD 25 -1 7 348
1970247N17316 1970 106 NA NA NOT_NAMED 1970-09-04 03:00:00 TS 19.1075 -44.5650 main 1781 1781 P_____________ AL101970 19.1075 -44.5650 TD 25 -1 6 351
1970247N17316 1970 106 NA NA NOT_NAMED 1970-09-04 06:00:00 TS 19.4000 -44.6000 25 hurdat_atl main 1811 1811 O_____________ hurdat_atl AL101970 19.4000 -44.6000 TD 25 -1 6 355
1970247N17316 1970 106 NA NA NOT_NAMED 1970-09-04 09:00:00 TS 19.7075 -44.6299 main 1840 1840 P_____________ AL101970 19.7075 -44.6299 TD 27 -1 6 1
1970247N17316 1970 106 NA NA NOT_NAMED 1970-09-04 12:00:00 TS 20.0000 -44.6000 30 hurdat_atl main 1869 1869 O_____________ hurdat_atl AL101970 20.0000 -44.6000 TD 30 -1 6 15
1970247N17316 1970 106 NA NA NOT_NAMED 1970-09-04 15:00:00 TS 20.2650 -44.4726 main 1904 1904 P_____________ AL101970 20.2650 -44.4726 TD 30 -1 6 30
1970247N17316 1970 106 NA NA NOT_NAMED 1970-09-04 18:00:00 TS 20.5000 -44.3000 30 hurdat_atl main 1933 1933 O_____________ hurdat_atl AL101970 20.5000 -44.3000 TD 30 -1 5 34
1970247N17316 1970 106 NA NA NOT_NAMED 1970-09-04 21:00:00 TS 20.7075 -44.1499 main 1963 1963 P_____________ AL101970 20.7075 -44.1499 TD 32 -1 5 35
1970247N17316 1970 106 NA NA NOT_NAMED 1970-09-05 00:00:00 TS 20.9000 -44.0000 35 1006 hurdat_atl main 1987 1987 O_____________ hurdat_atl AL101970 20.9000 -44.0000 TS 35 1006 0 5 37
1970247N17316 1970 106 NA NA NOT_NAMED 1970-09-05 03:00:00 TS 21.0925 -43.8425 main 2017 2017 P_____________ AL101970 21.0925 -43.8425 TS 37 0 5 35
1970247N17316 1970 106 NA NA NOT_NAMED 1970-09-05 06:00:00 TS 21.3000 -43.7000 40 hurdat_atl main 2042 2042 O_____________ hurdat_atl AL101970 21.3000 -43.7000 TS 40 0 5 29
1970247N17316 1970 106 NA NA NOT_NAMED 1970-09-05 09:00:00 TS 21.5425 -43.5701 main 2066 2066 P_____________ AL101970 21.5425 -43.5701 TS 40 0 5 20
1970247N17316 1970 106 NA NA NOT_NAMED 1970-09-05 12:00:00 TS 21.8000 -43.5000 40 hurdat_atl main 2101 2101 O_____________ hurdat_atl AL101970 21.8000 -43.5000 TS 40 0 5 7
1970247N17316 1970 106 NA NA NOT_NAMED 1970-09-05 15:00:00 TS 22.0500 -43.5125 main 2120 2120 P_____________ AL101970 22.0500 -43.5125 TS 40 0 5 350
1970247N17316 1970 106 NA NA NOT_NAMED 1970-09-05 18:00:00 TS 22.3000 -43.6000 40 hurdat_atl main 2144 2144 O_____________ hurdat_atl AL101970 22.3000 -43.6000 TS 40 0 6 339
1970247N17316 1970 106 NA NA NOT_NAMED 1970-09-05 21:00:00 TS 22.5800 -43.7349 main 2169 2164 P_____________ AL101970 22.5800 -43.7349 TS 37 0 6 331
1970247N17316 1970 106 NA NA NOT_NAMED 1970-09-06 00:00:00 TS 22.8000 -43.9000 35 hurdat_atl main 2179 2179 O_____________ hurdat_atl AL101970 22.8000 -43.9000 TS 35 0 4 319
1970247N17316 1970 106 NA NA NOT_NAMED 1970-09-06 03:00:00 TS 22.9025 -44.0425 main 2185 2175 P_____________ AL101970 22.9025 -44.0425 TS 35 0 3 290
1970247N17316 1970 106 NA NA NOT_NAMED 1970-09-06 06:00:00 TS 22.9000 -44.2000 35 hurdat_atl main 2175 2156 O_____________ hurdat_atl AL101970 22.9000 -44.2000 TS 35 0 3 259
1970247N17316 1970 106 NA NA NOT_NAMED 1970-09-06 09:00:00 TS 22.8375 -44.3925 main 2156 2137 P_____________ AL101970 22.8375 -44.3925 TS 35 0 4 242
1970247N17316 1970 106 NA NA NOT_NAMED 1970-09-06 12:00:00 TS 22.7000 -44.6000 35 hurdat_atl main 2137 2108 O_____________ hurdat_atl AL101970 22.7000 -44.6000 TS 35 0 5 228
1970247N17316 1970 106 NA NA NOT_NAMED 1970-09-06 15:00:00 TS 22.5074 -44.7925 main 2108 2079 P_____________ AL101970 22.5074 -44.7925 TS 35 0 5 223
1970247N17316 1970 106 NA NA NOT_NAMED 1970-09-06 18:00:00 TS 22.3000 -45.0000 35 hurdat_atl main 2079 2050 O_____________ hurdat_atl AL101970 22.3000 -45.0000 TS 35 0 6 228
1970247N17316 1970 106 NA NA NOT_NAMED 1970-09-06 21:00:00 TS 22.1350 -45.2350 main 2050 2027 P_____________ AL101970 22.1350 -45.2350 TS 32 -1 6 237
1970247N17316 1970 106 NA NA NOT_NAMED 1970-09-07 00:00:00 TS 22.0000 -45.5000 30 hurdat_atl main 2027 2005 O_____________ hurdat_atl AL101970 22.0000 -45.5000 TD 30 -1 6 245
1970247N17316 1970 106 NA NA NOT_NAMED 1970-09-07 03:00:00 TS 21.8925 -45.7924 main 2005 1981 P_____________ AL101970 21.8925 -45.7924 TD 30 -1 6 250
1970247N17316 1970 106 NA NA NOT_NAMED 1970-09-07 06:00:00 TS 21.8000 -46.1000 30 hurdat_atl main 1981 1957 O_____________ hurdat_atl AL101970 21.8000 -46.1000 TD 30 -1 6 251
1970247N17316 1970 106 NA NA NOT_NAMED 1970-09-07 09:00:00 TS 21.6999 -46.4000 main 1957 1934 P_____________ AL101970 21.6999 -46.4000 TD 30 -1 6 250
1970247N17316 1970 106 NA NA NOT_NAMED 1970-09-07 12:00:00 TS 21.6000 -46.7000 30 hurdat_atl main 1934 1910 O_____________ hurdat_atl AL101970 21.6000 -46.7000 TD 30 -1 6 250
1970247N17316 1970 106 NA NA NOT_NAMED 1970-09-07 15:00:00 TS 21.4999 -47.0000 main 1910 1887 P_____________ AL101970 21.4999 -47.0000 TD 30 -1 6 250
1970247N17316 1970 106 NA NA NOT_NAMED 1970-09-07 18:00:00 TS 21.4000 -47.3000 30 hurdat_atl main 1887 1857 O_____________ hurdat_atl AL101970 21.4000 -47.3000 TD 30 -1 6 250
1970247N17316 1970 106 NA NA NOT_NAMED 1970-09-07 21:00:00 TS 21.2999 -47.6000 main 1857 1826 P_____________ AL101970 21.2999 -47.6000 TD 27 -1 6 250
1970247N17316 1970 106 NA NA NOT_NAMED 1970-09-08 00:00:00 TS 21.2000 -47.9000 25 hurdat_atl main 1826 1795 O_____________ hurdat_atl AL101970 21.2000 -47.9000 TD 25 -1 6 250
1970247N17316 1970 106 NA NA NOT_NAMED 1970-09-08 03:00:00 TS 21.0999 -48.2000 main 1795 1763 P_____________ AL101970 21.0999 -48.2000 TD 25 -1 6 250
1970247N17316 1970 106 NA NA NOT_NAMED 1970-09-08 06:00:00 TS 21.0000 -48.5000 25 hurdat_atl main 1763 1732 O_____________ hurdat_atl AL101970 21.0000 -48.5000 TD 25 -1 6 250
1970247N17316 1970 106 NA NA NOT_NAMED 1970-09-08 09:00:00 TS 20.8999 -48.7924 main 1732 1701 P_____________ AL101970 20.8999 -48.7924 TD 25 -1 6 250
1970247N17316 1970 106 NA NA NOT_NAMED 1970-09-08 12:00:00 TS 20.8000 -49.1000 25 hurdat_atl main 1701 1670 O_____________ hurdat_atl AL101970 20.8000 -49.1000 TD 25 -1 6 252
1970247N17316 1970 106 NA NA NOT_NAMED 1970-09-08 15:00:00 TS 20.6999 -49.4350 main 1670 1631 P_____________ AL101970 20.6999 -49.4350 TD 25 -1 7 253
1970247N17316 1970 106 NA NA NOT_NAMED 1970-09-08 18:00:00 TS 20.6000 -49.8000 25 hurdat_atl main 1631 1593 O_____________ hurdat_atl AL101970 20.6000 -49.8000 TD 25 -1 7 255
1970247N17316 1970 106 NA NA NOT_NAMED 1970-09-08 21:00:00 TS 20.5074 -50.1849 main 1593 1554 P_____________ AL101970 20.5074 -50.1849 TD 25 -1 8 255
1970247N17316 1970 106 NA NA NOT_NAMED 1970-09-09 00:00:00 TS 20.4000 -50.6000 25 hurdat_atl main 1554 1516 O_____________ hurdat_atl AL101970 20.4000 -50.6000 TD 25 -1 8 252
1970247N17316 1970 106 NA NA NOT_NAMED 1970-09-09 03:00:00 TS 20.2573 -51.0275 main 1516 1463 P_____________ AL101970 20.2573 -51.0275 TD 25 -1 9 250
1970247N17316 1970 106 NA NA NOT_NAMED 1970-09-09 06:00:00 TS 20.1000 -51.5000 25 hurdat_atl main 1463 1418 O_____________ hurdat_atl AL101970 20.1000 -51.5000 TD 25 -1 10 251
1970247N17316 1970 106 NA NA NOT_NAMED 1970-09-09 09:00:00 TS 19.9424 -52.0275 main 1410 1359 P_____________ AL101970 19.9424 -52.0275 TD 25 -1 11 254
1970247N17316 1970 106 NA NA NOT_NAMED 1970-09-09 12:00:00 TS 19.8000 -52.6000 25 hurdat_atl main 1359 1309 O_____________ hurdat_atl AL101970 19.8000 -52.6000 TD 25 -1 11 257
1970247N17316 1970 106 NA NA NOT_NAMED 1970-09-09 15:00:00 TS 19.6850 -53.2075 main 1309 1247 P_____________ AL101970 19.6850 -53.2075 TD 25 -1 11 260
1970247N17316 1970 106 NA NA NOT_NAMED 1970-09-09 18:00:00 TS 19.6000 -53.8000 25 hurdat_atl main 1247 1194 O_____________ hurdat_atl AL101970 19.6000 -53.8000 TD 25 -1 11 262
1970247N17316 1970 106 NA NA NOT_NAMED 1970-09-09 21:00:00 TS 19.5347 -54.3149 main 1194 1142 P_____________ AL101970 19.5347 -54.3149 TD 25 -1 9 264
1970247N17316 1970 106 NA NA NOT_NAMED 1970-09-10 00:00:00 TS 19.5000 -54.8000 25 hurdat_atl main 1142 1090 O_____________ hurdat_atl AL101970 19.5000 -54.8000 TD 25 -1 9 267
1970247N17316 1970 106 NA NA NOT_NAMED 1970-09-10 03:00:00 TS 19.4924 -55.2999 main 1090 1037 P_____________ AL101970 19.4924 -55.2999 TD 25 -1 9 270
1970247N17316 1970 106 NA NA NOT_NAMED 1970-09-10 06:00:00 TS 19.5000 -55.8000 25 hurdat_atl main 1037 985 O_____________ hurdat_atl AL101970 19.5000 -55.8000 TD 25 -1 9 270
1970247N17316 1970 106 NA NA NOT_NAMED 1970-09-10 09:00:00 TS 19.4999 -56.3000 main 985 933 P_____________ AL101970 19.4999 -56.3000 TD 25 -1 9 270
1970247N17316 1970 106 NA NA NOT_NAMED 1970-09-10 12:00:00 TS 19.5000 -56.8000 25 hurdat_atl main 933 881 O_____________ hurdat_atl AL101970 19.5000 -56.8000 TD 25 -1 9 270
1970247N17316 1970 106 NA NA NOT_NAMED 1970-09-10 15:00:00 TS 19.4997 -57.2850 main 881 829 P_____________ AL101970 19.4997 -57.2850 TD 25 -1 9 270
1970247N17316 1970 106 NA NA NOT_NAMED 1970-09-10 18:00:00 TS 19.5000 -57.8000 25 hurdat_atl main 829 767 O_____________ hurdat_atl AL101970 19.5000 -57.8000 TD 25 -1 10 270
1970247N17316 1970 106 NA NA NOT_NAMED 1970-09-10 21:00:00 TS 19.4999 -58.3850 main 767 704 P_____________ AL101970 19.4999 -58.3850 TD 25 -1 11 270
1970247N17316 1970 106 NA NA NOT_NAMED 1970-09-11 00:00:00 TS 19.5000 -59.0000 25 hurdat_atl main 704 642 O_____________ hurdat_atl AL101970 19.5000 -59.0000 TD 25 -1 12 270
1970247N17316 1970 106 NA NA NOT_NAMED 1970-09-11 03:00:00 TS 19.4999 -59.6075 main 642 581 P_____________ AL101970 19.4999 -59.6075 TD 25 -1 11 270
1970247N17316 1970 106 NA NA NOT_NAMED 1970-09-11 06:00:00 TS 19.5000 -60.2000 25 hurdat_atl main 581 529 O_____________ hurdat_atl AL101970 19.5000 -60.2000 TD 25 -1 11 270
1970247N17316 1970 106 NA NA NOT_NAMED 1970-09-11 09:00:00 TS 19.4923 -60.7651 main 519 468 P_____________ AL101970 19.4923 -60.7651 TD 25 -1 10 270
1970247N17316 1970 106 NA NA NOT_NAMED 1970-09-11 12:00:00 TS 19.5000 -61.3000 25 hurdat_atl main 468 418 O_____________ hurdat_atl AL101970 19.5000 -61.3000 TD 25 -1 10 273
1970247N17316 1970 106 NA NA NOT_NAMED 1970-09-11 15:00:00 TS 19.5422 -61.8000 main 418 372 P_____________ AL101970 19.5422 -61.8000 TD 25 -1 9 276
1970247N17316 1970 106 NA NA NOT_NAMED 1970-09-11 18:00:00 TS 19.6000 -62.3000 25 hurdat_atl main 372 323 O_____________ hurdat_atl AL101970 19.6000 -62.3000 TD 25 -1 10 276
1970247N17316 1970 106 NA NA NOT_NAMED 1970-09-11 21:00:00 TS 19.6499 -62.8425 main 323 273 P_____________ AL101970 19.6499 -62.8425 TD 25 -1 10 276
1970247N17316 1970 106 NA NA NOT_NAMED 1970-09-12 00:00:00 TS 19.7000 -63.4000 25 hurdat_atl main 273 230 O_____________ hurdat_atl AL101970 19.7000 -63.4000 TD 25 -1 10 275
1970247N17316 1970 106 NA NA NOT_NAMED 1970-09-12 03:00:00 TS 19.7423 -63.9501 main 222 194 P_____________ AL101970 19.7423 -63.9501 TD 27 -1 10 276
1970247N17316 1970 106 NA NA NOT_NAMED 1970-09-12 06:00:00 TS 19.8000 -64.5000 30 hurdat_atl main 194 177 O_____________ hurdat_atl AL101970 19.8000 -64.5000 TD 30 -1 10 278
1970247N17316 1970 106 NA NA NOT_NAMED 1970-09-12 09:00:00 TS 19.8923 -65.0500 main 179 170 P_____________ AL101970 19.8923 -65.0500 TD 30 -1 11 281
1970247N17316 1970 106 NA NA NOT_NAMED 1970-09-12 12:00:00 TS 20.0000 -65.6000 30 hurdat_atl main 178 178 O_____________ hurdat_atl AL101970 20.0000 -65.6000 TD 30 -1 11 281
1970247N17316 1970 106 NA NA NOT_NAMED 1970-09-12 15:00:00 TS 20.0998 -66.1501 main 190 190 P_____________ AL101970 20.0998 -66.1501 TD 30 -1 11 281
1970247N17316 1970 106 NA NA NOT_NAMED 1970-09-12 18:00:00 TS 20.2000 -66.7000 30 hurdat_atl main 201 201 O_____________ hurdat_atl AL101970 20.2000 -66.7000 TD 30 -1 10 281
1970247N17316 1970 106 NA NA NOT_NAMED 1970-09-12 21:00:00 TS 20.2998 -67.2426 main 212 197 P_____________ AL101970 20.2998 -67.2426 TD 30 -1 11 281
1970247N17316 1970 106 NA NA NOT_NAMED 1970-09-13 00:00:00 TS 20.4000 -67.8000 30 hurdat_atl main 197 163 O_____________ hurdat_atl AL101970 20.4000 -67.8000 TD 30 -1 11 281
1970247N17316 1970 106 NA NA NOT_NAMED 1970-09-13 03:00:00 TS 20.4999 -68.3926 main 163 148 P_____________ AL101970 20.4999 -68.3926 TD 30 -1 11 280
1970247N17316 1970 106 NA NA NOT_NAMED 1970-09-13 06:00:00 TS 20.6000 -69.0000 30 hurdat_atl main 148 129 O_____________ hurdat_atl AL101970 20.6000 -69.0000 TD 30 -1 12 280
1970247N17316 1970 106 NA NA NOT_NAMED 1970-09-13 09:00:00 TS 20.7004 -69.6023 main 129 119 P_____________ AL101970 20.7004 -69.6023 TD 30 -1 11 280
1970247N17316 1970 106 NA NA NOT_NAMED 1970-09-13 12:00:00 TS 20.8000 -70.2000 30 hurdat_atl main 119 O_____________ hurdat_atl AL101970 20.8000 -70.2000 TD 30 -1 11 280

IBTrACS Databaseについて

本データベースは、米国NOAAが公開する1842年以降の世界の熱帯低気圧のベストトラックデータアーカイブInternational Best Track Archive for Climate Stewardship (IBTrACS)を、ウェブで閲覧しやすい形式に変換したものです。

最終更新日:2022-05-24